sensor_id;sensor_type;location;lat;lon;timestamp;P1;durP1;ratioP1;P2;durP2;ratioP2
52380;SDS011;38310;52.796;6.942;2023-11-21T00:00:14;49.35;;;30.88;;
52380;SDS011;38310;52.796;6.942;2023-11-21T00:02:41;52.00;;;30.88;;
52380;SDS011;38310;52.796;6.942;2023-11-21T00:05:11;51.13;;;30.98;;
52380;SDS011;38310;52.796;6.942;2023-11-21T00:07:39;64.00;;;32.40;;
52380;SDS011;38310;52.796;6.942;2023-11-21T00:10:05;56.38;;;31.35;;
52380;SDS011;38310;52.796;6.942;2023-11-21T00:12:33;54.65;;;32.05;;
52380;SDS011;38310;52.796;6.942;2023-11-21T00:14:59;50.90;;;31.35;;
52380;SDS011;38310;52.796;6.942;2023-11-21T00:17:26;55.33;;;32.88;;
52380;SDS011;38310;52.796;6.942;2023-11-21T00:19:52;50.95;;;29.42;;
52380;SDS011;38310;52.796;6.942;2023-11-21T00:22:18;54.85;;;30.50;;
52380;SDS011;38310;52.796;6.942;2023-11-21T00:24:45;55.42;;;30.42;;
52380;SDS011;38310;52.796;6.942;2023-11-21T00:27:11;48.03;;;29.52;;
52380;SDS011;38310;52.796;6.942;2023-11-21T00:29:40;56.17;;;31.17;;
52380;SDS011;38310;52.796;6.942;2023-11-21T00:32:06;48.90;;;29.73;;
52380;SDS011;38310;52.796;6.942;2023-11-21T00:34:32;51.20;;;31.48;;
52380;SDS011;38310;52.796;6.942;2023-11-21T00:36:58;52.88;;;32.53;;
52380;SDS011;38310;52.796;6.942;2023-11-21T00:39:24;55.20;;;32.35;;
52380;SDS011;38310;52.796;6.942;2023-11-21T00:41:51;47.63;;;32.15;;
52380;SDS011;38310;52.796;6.942;2023-11-21T00:44:17;55.25;;;32.28;;
52380;SDS011;38310;52.796;6.942;2023-11-21T00:46:43;48.75;;;30.45;;
52380;SDS011;38310;52.796;6.942;2023-11-21T00:49:09;48.80;;;32.35;;
52380;SDS011;38310;52.796;6.942;2023-11-21T00:51:35;56.90;;;32.00;;
52380;SDS011;38310;52.796;6.942;2023-11-21T00:54:07;51.88;;;34.50;;
52380;SDS011;38310;52.796;6.942;2023-11-21T00:56:33;48.75;;;31.52;;
52380;SDS011;38310;52.796;6.942;2023-11-21T00:58:59;49.45;;;31.90;;
52380;SDS011;38310;52.796;6.942;2023-11-21T01:01:24;53.90;;;31.65;;
52380;SDS011;38310;52.796;6.942;2023-11-21T01:03:50;55.17;;;32.67;;
52380;SDS011;38310;52.796;6.942;2023-11-21T01:06:16;51.05;;;31.42;;
52380;SDS011;38310;52.796;6.942;2023-11-21T01:08:43;48.55;;;28.35;;
52380;SDS011;38310;52.796;6.942;2023-11-21T01:11:09;44.03;;;29.88;;
52380;SDS011;38310;52.796;6.942;2023-11-21T01:13:37;50.25;;;28.77;;
52380;SDS011;38310;52.796;6.942;2023-11-21T01:16:06;49.88;;;29.40;;
52380;SDS011;38310;52.796;6.942;2023-11-21T01:18:32;51.97;;;31.17;;
52380;SDS011;38310;52.796;6.942;2023-11-21T01:20:58;47.13;;;30.33;;
52380;SDS011;38310;52.796;6.942;2023-11-21T01:23:27;45.33;;;27.58;;
52380;SDS011;38310;52.796;6.942;2023-11-21T01:25:54;48.00;;;27.70;;
52380;SDS011;38310;52.796;6.942;2023-11-21T01:28:21;50.92;;;30.05;;
52380;SDS011;38310;52.796;6.942;2023-11-21T01:30:47;51.25;;;28.98;;
52380;SDS011;38310;52.796;6.942;2023-11-21T01:33:14;47.38;;;27.60;;
52380;SDS011;38310;52.796;6.942;2023-11-21T01:35:41;48.28;;;26.95;;
52380;SDS011;38310;52.796;6.942;2023-11-21T01:38:07;53.03;;;28.50;;
52380;SDS011;38310;52.796;6.942;2023-11-21T01:40:33;44.80;;;28.15;;
52380;SDS011;38310;52.796;6.942;2023-11-21T01:42:59;47.03;;;26.80;;
52380;SDS011;38310;52.796;6.942;2023-11-21T01:45:27;44.65;;;27.30;;
52380;SDS011;38310;52.796;6.942;2023-11-21T01:47:57;46.63;;;28.05;;
52380;SDS011;38310;52.796;6.942;2023-11-21T01:50:23;53.28;;;29.17;;
52380;SDS011;38310;52.796;6.942;2023-11-21T01:52:50;45.47;;;27.23;;
52380;SDS011;38310;52.796;6.942;2023-11-21T01:55:17;46.63;;;26.15;;
52380;SDS011;38310;52.796;6.942;2023-11-21T01:57:44;51.65;;;28.60;;
52380;SDS011;38310;52.796;6.942;2023-11-21T02:00:11;40.85;;;25.45;;
52380;SDS011;38310;52.796;6.942;2023-11-21T02:02:48;48.47;;;28.08;;
52380;SDS011;38310;52.796;6.942;2023-11-21T02:05:15;37.40;;;25.58;;
52380;SDS011;38310;52.796;6.942;2023-11-21T02:07:43;48.38;;;27.75;;
52380;SDS011;38310;52.796;6.942;2023-11-21T02:10:10;50.97;;;30.73;;
52380;SDS011;38310;52.796;6.942;2023-11-21T02:12:43;44.53;;;27.65;;
52380;SDS011;38310;52.796;6.942;2023-11-21T02:15:13;45.97;;;26.58;;
52380;SDS011;38310;52.796;6.942;2023-11-21T02:17:48;49.83;;;28.88;;
52380;SDS011;38310;52.796;6.942;2023-11-21T02:20:19;49.92;;;28.33;;
52380;SDS011;38310;52.796;6.942;2023-11-21T02:22:49;49.45;;;29.23;;
52380;SDS011;38310;52.796;6.942;2023-11-21T02:25:14;50.80;;;28.98;;
52380;SDS011;38310;52.796;6.942;2023-11-21T02:27:40;50.33;;;27.35;;
52380;SDS011;38310;52.796;6.942;2023-11-21T02:30:08;44.17;;;27.30;;
52380;SDS011;38310;52.796;6.942;2023-11-21T02:32:42;47.33;;;27.77;;
52380;SDS011;38310;52.796;6.942;2023-11-21T02:35:08;42.30;;;26.98;;
52380;SDS011;38310;52.796;6.942;2023-11-21T02:37:34;49.33;;;27.60;;
52380;SDS011;38310;52.796;6.942;2023-11-21T02:40:00;42.67;;;27.63;;
52380;SDS011;38310;52.796;6.942;2023-11-21T02:42:29;47.83;;;28.58;;
52380;SDS011;38310;52.796;6.942;2023-11-21T02:44:55;43.60;;;25.48;;
52380;SDS011;38310;52.796;6.942;2023-11-21T02:47:22;45.45;;;26.83;;
52380;SDS011;38310;52.796;6.942;2023-11-21T02:49:48;42.80;;;24.38;;
52380;SDS011;38310;52.796;6.942;2023-11-21T02:52:14;45.90;;;27.67;;
52380;SDS011;38310;52.796;6.942;2023-11-21T02:54:41;43.33;;;26.45;;
52380;SDS011;38310;52.796;6.942;2023-11-21T02:57:07;40.83;;;25.08;;
52380;SDS011;38310;52.796;6.942;2023-11-21T02:59:33;55.00;;;29.15;;
52380;SDS011;38310;52.796;6.942;2023-11-21T03:02:00;47.92;;;26.77;;
52380;SDS011;38310;52.796;6.942;2023-11-21T03:04:25;43.42;;;25.95;;
52380;SDS011;38310;52.796;6.942;2023-11-21T03:06:51;45.45;;;26.60;;
52380;SDS011;38310;52.796;6.942;2023-11-21T03:09:17;46.78;;;28.02;;
52380;SDS011;38310;52.796;6.942;2023-11-21T03:11:43;48.13;;;28.75;;
52380;SDS011;38310;52.796;6.942;2023-11-21T03:14:08;40.67;;;26.45;;
52380;SDS011;38310;52.796;6.942;2023-11-21T03:16:35;45.60;;;26.52;;
52380;SDS011;38310;52.796;6.942;2023-11-21T03:19:00;39.67;;;25.30;;
52380;SDS011;38310;52.796;6.942;2023-11-21T03:21:26;43.30;;;27.23;;
52380;SDS011;38310;52.796;6.942;2023-11-21T03:23:52;40.20;;;26.60;;
52380;SDS011;38310;52.796;6.942;2023-11-21T03:26:18;38.78;;;24.95;;
52380;SDS011;38310;52.796;6.942;2023-11-21T03:28:44;45.65;;;26.50;;
52380;SDS011;38310;52.796;6.942;2023-11-21T03:31:11;47.28;;;28.30;;
52380;SDS011;38310;52.796;6.942;2023-11-21T03:33:37;41.13;;;25.42;;
52380;SDS011;38310;52.796;6.942;2023-11-21T03:36:02;40.45;;;25.80;;
52380;SDS011;38310;52.796;6.942;2023-11-21T03:38:29;44.25;;;27.25;;
52380;SDS011;38310;52.796;6.942;2023-11-21T03:40:54;38.00;;;24.80;;
52380;SDS011;38310;52.796;6.942;2023-11-21T03:43:21;44.40;;;25.63;;
52380;SDS011;38310;52.796;6.942;2023-11-21T03:45:47;50.15;;;27.55;;
52380;SDS011;38310;52.796;6.942;2023-11-21T03:48:13;46.38;;;28.92;;
52380;SDS011;38310;52.796;6.942;2023-11-21T03:50:39;45.58;;;25.88;;
52380;SDS011;38310;52.796;6.942;2023-11-21T03:53:05;45.60;;;26.58;;
52380;SDS011;38310;52.796;6.942;2023-11-21T03:55:31;49.08;;;29.13;;
52380;SDS011;38310;52.796;6.942;2023-11-21T03:57:57;44.67;;;27.50;;
52380;SDS011;38310;52.796;6.942;2023-11-21T04:00:24;41.55;;;24.52;;
52380;SDS011;38310;52.796;6.942;2023-11-21T04:02:52;45.10;;;26.05;;
52380;SDS011;38310;52.796;6.942;2023-11-21T04:05:19;41.05;;;26.85;;
52380;SDS011;38310;52.796;6.942;2023-11-21T04:07:47;41.05;;;28.52;;
52380;SDS011;38310;52.796;6.942;2023-11-21T04:10:16;48.78;;;30.40;;
52380;SDS011;38310;52.796;6.942;2023-11-21T04:12:43;44.40;;;27.33;;
52380;SDS011;38310;52.796;6.942;2023-11-21T04:15:10;46.38;;;28.35;;
52380;SDS011;38310;52.796;6.942;2023-11-21T04:17:38;51.05;;;31.35;;
52380;SDS011;38310;52.796;6.942;2023-11-21T04:20:04;43.33;;;27.92;;
52380;SDS011;38310;52.796;6.942;2023-11-21T04:22:34;37.42;;;26.15;;
52380;SDS011;38310;52.796;6.942;2023-11-21T04:25:08;44.72;;;27.65;;
52380;SDS011;38310;52.796;6.942;2023-11-21T04:27:36;36.50;;;25.75;;
52380;SDS011;38310;52.796;6.942;2023-11-21T04:30:02;39.03;;;26.52;;
52380;SDS011;38310;52.796;6.942;2023-11-21T04:32:27;33.42;;;23.67;;
52380;SDS011;38310;52.796;6.942;2023-11-21T04:34:53;43.60;;;27.35;;
52380;SDS011;38310;52.796;6.942;2023-11-21T04:37:19;45.10;;;31.52;;
52380;SDS011;38310;52.796;6.942;2023-11-21T04:39:46;35.40;;;23.98;;
52380;SDS011;38310;52.796;6.942;2023-11-21T04:42:12;39.20;;;26.08;;
52380;SDS011;38310;52.796;6.942;2023-11-21T04:44:38;42.38;;;28.70;;
52380;SDS011;38310;52.796;6.942;2023-11-21T04:47:06;44.92;;;28.33;;
52380;SDS011;38310;52.796;6.942;2023-11-21T04:49:32;34.65;;;24.17;;
52380;SDS011;38310;52.796;6.942;2023-11-21T04:51:58;36.83;;;26.63;;
52380;SDS011;38310;52.796;6.942;2023-11-21T04:54:24;57.80;;;34.33;;
52380;SDS011;38310;52.796;6.942;2023-11-21T04:56:50;43.35;;;28.98;;
52380;SDS011;38310;52.796;6.942;2023-11-21T04:59:16;41.30;;;28.15;;
52380;SDS011;38310;52.796;6.942;2023-11-21T05:01:41;45.40;;;30.88;;
52380;SDS011;38310;52.796;6.942;2023-11-21T05:04:07;48.33;;;33.17;;
52380;SDS011;38310;52.796;6.942;2023-11-21T05:06:34;43.50;;;29.50;;
52380;SDS011;38310;52.796;6.942;2023-11-21T05:09:00;40.67;;;27.50;;
52380;SDS011;38310;52.796;6.942;2023-11-21T05:11:26;37.40;;;26.55;;
52380;SDS011;38310;52.796;6.942;2023-11-21T05:13:54;52.55;;;34.20;;
52380;SDS011;38310;52.796;6.942;2023-11-21T05:16:25;46.53;;;29.90;;
52380;SDS011;38310;52.796;6.942;2023-11-21T05:18:52;51.58;;;33.55;;
52380;SDS011;38310;52.796;6.942;2023-11-21T05:21:21;40.22;;;26.52;;
52380;SDS011;38310;52.796;6.942;2023-11-21T05:23:47;35.72;;;27.73;;
52380;SDS011;38310;52.796;6.942;2023-11-21T05:26:12;44.42;;;31.95;;
52380;SDS011;38310;52.796;6.942;2023-11-21T05:28:38;47.25;;;34.03;;
52380;SDS011;38310;52.796;6.942;2023-11-21T05:31:04;44.65;;;28.77;;
52380;SDS011;38310;52.796;6.942;2023-11-21T05:33:30;45.45;;;31.25;;
52380;SDS011;38310;52.796;6.942;2023-11-21T05:35:55;45.92;;;33.20;;
52380;SDS011;38310;52.796;6.942;2023-11-21T05:38:21;48.92;;;31.00;;
52380;SDS011;38310;52.796;6.942;2023-11-21T05:40:47;55.42;;;34.55;;
52380;SDS011;38310;52.796;6.942;2023-11-21T05:43:12;42.58;;;27.65;;
52380;SDS011;38310;52.796;6.942;2023-11-21T05:45:40;56.47;;;37.55;;
52380;SDS011;38310;52.796;6.942;2023-11-21T05:48:06;64.97;;;35.20;;
52380;SDS011;38310;52.796;6.942;2023-11-21T05:50:31;62.15;;;37.70;;
52380;SDS011;38310;52.796;6.942;2023-11-21T05:52:57;48.30;;;31.88;;
52380;SDS011;38310;52.796;6.942;2023-11-21T05:55:25;44.55;;;31.67;;
52380;SDS011;38310;52.796;6.942;2023-11-21T05:57:50;63.42;;;39.58;;
52380;SDS011;38310;52.796;6.942;2023-11-21T06:00:16;72.28;;;41.50;;
52380;SDS011;38310;52.796;6.942;2023-11-21T06:02:47;43.00;;;29.88;;
52380;SDS011;38310;52.796;6.942;2023-11-21T06:05:18;43.85;;;31.35;;
52380;SDS011;38310;52.796;6.942;2023-11-21T06:07:45;74.07;;;45.00;;
52380;SDS011;38310;52.796;6.942;2023-11-21T06:10:11;56.05;;;35.50;;
52380;SDS011;38310;52.796;6.942;2023-11-21T06:12:43;48.22;;;34.08;;
52380;SDS011;38310;52.796;6.942;2023-11-21T06:15:09;56.50;;;39.35;;
52380;SDS011;38310;52.796;6.942;2023-11-21T06:17:38;61.35;;;38.85;;
52380;SDS011;38310;52.796;6.942;2023-11-21T06:20:05;56.53;;;37.05;;
52380;SDS011;38310;52.796;6.942;2023-11-21T06:22:38;55.60;;;35.42;;
52380;SDS011;38310;52.796;6.942;2023-11-21T06:25:06;56.83;;;38.75;;
52380;SDS011;38310;52.796;6.942;2023-11-21T06:27:34;51.97;;;33.08;;
52380;SDS011;38310;52.796;6.942;2023-11-21T06:30:03;59.65;;;35.00;;
52380;SDS011;38310;52.796;6.942;2023-11-21T06:32:32;51.88;;;34.95;;
52380;SDS011;38310;52.796;6.942;2023-11-21T06:34:59;84.13;;;46.95;;
52380;SDS011;38310;52.796;6.942;2023-11-21T06:37:28;60.58;;;39.78;;
52380;SDS011;38310;52.796;6.942;2023-11-21T06:39:55;83.57;;;44.20;;
52380;SDS011;38310;52.796;6.942;2023-11-21T06:42:23;85.20;;;47.08;;
52380;SDS011;38310;52.796;6.942;2023-11-21T06:44:49;77.45;;;44.00;;
52380;SDS011;38310;52.796;6.942;2023-11-21T06:47:20;70.53;;;41.05;;
52380;SDS011;38310;52.796;6.942;2023-11-21T06:49:46;47.92;;;32.28;;
52380;SDS011;38310;52.796;6.942;2023-11-21T06:52:14;47.05;;;32.92;;
52380;SDS011;38310;52.796;6.942;2023-11-21T06:54:40;50.90;;;35.35;;
52380;SDS011;38310;52.796;6.942;2023-11-21T06:57:06;59.40;;;38.75;;
52380;SDS011;38310;52.796;6.942;2023-11-21T06:59:31;66.32;;;41.00;;
52380;SDS011;38310;52.796;6.942;2023-11-21T07:01:57;245.98;;;188.27;;
52380;SDS011;38310;52.796;6.942;2023-11-21T07:04:23;91.13;;;68.50;;
52380;SDS011;38310;52.796;6.942;2023-11-21T07:06:50;89.20;;;59.70;;
52380;SDS011;38310;52.796;6.942;2023-11-21T07:09:19;70.97;;;49.35;;
52380;SDS011;38310;52.796;6.942;2023-11-21T07:11:48;61.47;;;43.83;;
52380;SDS011;38310;52.796;6.942;2023-11-21T07:14:15;77.07;;;45.53;;
52380;SDS011;38310;52.796;6.942;2023-11-21T07:16:42;62.50;;;40.00;;
52380;SDS011;38310;52.796;6.942;2023-11-21T07:19:08;50.35;;;33.90;;
52380;SDS011;38310;52.796;6.942;2023-11-21T07:21:37;59.97;;;37.13;;
52380;SDS011;38310;52.796;6.942;2023-11-21T07:24:04;90.57;;;52.65;;
52380;SDS011;38310;52.796;6.942;2023-11-21T07:26:31;47.08;;;32.33;;
52380;SDS011;38310;52.796;6.942;2023-11-21T07:28:58;45.97;;;30.50;;
52380;SDS011;38310;52.796;6.942;2023-11-21T07:31:24;49.67;;;34.67;;
52380;SDS011;38310;52.796;6.942;2023-11-21T07:33:50;56.58;;;41.08;;
52380;SDS011;38310;52.796;6.942;2023-11-21T07:36:17;45.45;;;32.45;;
52380;SDS011;38310;52.796;6.942;2023-11-21T07:38:44;44.88;;;27.65;;
52380;SDS011;38310;52.796;6.942;2023-11-21T07:41:10;50.45;;;32.95;;
52380;SDS011;38310;52.796;6.942;2023-11-21T07:43:36;56.22;;;34.72;;
52380;SDS011;38310;52.796;6.942;2023-11-21T07:46:02;39.08;;;26.38;;
52380;SDS011;38310;52.796;6.942;2023-11-21T07:48:29;40.25;;;26.77;;
52380;SDS011;38310;52.796;6.942;2023-11-21T07:50:55;39.88;;;26.70;;
52380;SDS011;38310;52.796;6.942;2023-11-21T07:53:21;40.40;;;26.45;;
52380;SDS011;38310;52.796;6.942;2023-11-21T07:55:47;39.65;;;26.90;;
52380;SDS011;38310;52.796;6.942;2023-11-21T07:58:13;36.85;;;26.95;;
52380;SDS011;38310;52.796;6.942;2023-11-21T08:00:41;43.05;;;27.67;;
52380;SDS011;38310;52.796;6.942;2023-11-21T08:03:07;43.35;;;29.55;;
52380;SDS011;38310;52.796;6.942;2023-11-21T08:05:33;42.25;;;28.00;;
52380;SDS011;38310;52.796;6.942;2023-11-21T08:07:59;42.08;;;28.58;;
52380;SDS011;38310;52.796;6.942;2023-11-21T08:10:25;38.45;;;25.13;;
52380;SDS011;38310;52.796;6.942;2023-11-21T08:12:51;43.17;;;29.67;;
52380;SDS011;38310;52.796;6.942;2023-11-21T08:15:17;46.28;;;28.85;;
52380;SDS011;38310;52.796;6.942;2023-11-21T08:17:43;43.72;;;27.88;;
52380;SDS011;38310;52.796;6.942;2023-11-21T08:20:09;42.85;;;26.60;;
52380;SDS011;38310;52.796;6.942;2023-11-21T08:22:36;40.70;;;26.50;;
52380;SDS011;38310;52.796;6.942;2023-11-21T08:25:02;40.25;;;25.67;;
52380;SDS011;38310;52.796;6.942;2023-11-21T08:27:29;49.20;;;28.58;;
52380;SDS011;38310;52.796;6.942;2023-11-21T08:29:55;42.35;;;26.55;;
52380;SDS011;38310;52.796;6.942;2023-11-21T08:32:22;44.17;;;27.30;;
52380;SDS011;38310;52.796;6.942;2023-11-21T08:34:48;38.08;;;24.60;;
52380;SDS011;38310;52.796;6.942;2023-11-21T08:37:16;47.58;;;25.60;;
52380;SDS011;38310;52.796;6.942;2023-11-21T08:39:46;37.40;;;23.40;;
52380;SDS011;38310;52.796;6.942;2023-11-21T08:42:13;43.30;;;24.45;;
52380;SDS011;38310;52.796;6.942;2023-11-21T08:44:39;46.10;;;24.65;;
52380;SDS011;38310;52.796;6.942;2023-11-21T08:47:06;42.10;;;26.40;;
52380;SDS011;38310;52.796;6.942;2023-11-21T08:49:33;48.38;;;27.98;;
52380;SDS011;38310;52.796;6.942;2023-11-21T08:51:58;59.20;;;28.52;;
52380;SDS011;38310;52.796;6.942;2023-11-21T08:54:25;46.88;;;27.30;;
52380;SDS011;38310;52.796;6.942;2023-11-21T08:56:54;49.15;;;27.98;;
52380;SDS011;38310;52.796;6.942;2023-11-21T08:59:20;61.10;;;31.45;;
52380;SDS011;38310;52.796;6.942;2023-11-21T09:01:46;49.35;;;27.92;;
52380;SDS011;38310;52.796;6.942;2023-11-21T09:04:12;56.97;;;31.90;;
52380;SDS011;38310;52.796;6.942;2023-11-21T09:06:39;61.83;;;31.98;;
52380;SDS011;38310;52.796;6.942;2023-11-21T09:09:05;48.15;;;28.10;;
52380;SDS011;38310;52.796;6.942;2023-11-21T09:11:34;48.47;;;30.00;;
52380;SDS011;38310;52.796;6.942;2023-11-21T09:14:06;47.03;;;28.83;;
52380;SDS011;38310;52.796;6.942;2023-11-21T09:16:32;62.88;;;34.22;;
52380;SDS011;38310;52.796;6.942;2023-11-21T09:19:04;55.28;;;30.75;;
52380;SDS011;38310;52.796;6.942;2023-11-21T09:21:30;57.72;;;31.48;;
52380;SDS011;38310;52.796;6.942;2023-11-21T09:23:56;47.20;;;28.30;;
52380;SDS011;38310;52.796;6.942;2023-11-21T09:26:22;43.92;;;26.35;;
52380;SDS011;38310;52.796;6.942;2023-11-21T09:28:47;48.65;;;29.55;;
52380;SDS011;38310;52.796;6.942;2023-11-21T09:31:13;45.35;;;28.13;;
52380;SDS011;38310;52.796;6.942;2023-11-21T09:33:42;43.55;;;26.77;;
52380;SDS011;38310;52.796;6.942;2023-11-21T09:36:12;49.08;;;30.95;;
52380;SDS011;38310;52.796;6.942;2023-11-21T09:38:41;38.38;;;24.30;;
52380;SDS011;38310;52.796;6.942;2023-11-21T09:41:11;36.35;;;23.58;;
52380;SDS011;38310;52.796;6.942;2023-11-21T09:43:46;40.60;;;25.55;;
52380;SDS011;38310;52.796;6.942;2023-11-21T09:46:12;35.67;;;22.77;;
52380;SDS011;38310;52.796;6.942;2023-11-21T09:48:45;39.35;;;24.15;;
52380;SDS011;38310;52.796;6.942;2023-11-21T09:51:15;35.35;;;23.25;;
52380;SDS011;38310;52.796;6.942;2023-11-21T09:53:45;38.53;;;23.67;;
52380;SDS011;38310;52.796;6.942;2023-11-21T09:56:14;39.00;;;24.95;;
52380;SDS011;38310;52.796;6.942;2023-11-21T09:58:44;38.78;;;24.10;;
52380;SDS011;38310;52.796;6.942;2023-11-21T10:01:10;36.97;;;24.33;;
52380;SDS011;38310;52.796;6.942;2023-11-21T10:03:38;33.58;;;22.10;;
52380;SDS011;38310;52.796;6.942;2023-11-21T10:06:04;37.00;;;22.90;;
52380;SDS011;38310;52.796;6.942;2023-11-21T10:08:31;34.38;;;22.15;;
52380;SDS011;38310;52.796;6.942;2023-11-21T10:10:58;39.60;;;23.80;;
52380;SDS011;38310;52.796;6.942;2023-11-21T10:13:24;34.55;;;23.45;;
52380;SDS011;38310;52.796;6.942;2023-11-21T10:15:55;43.38;;;29.40;;
52380;SDS011;38310;52.796;6.942;2023-11-21T10:18:24;29.20;;;21.17;;
52380;SDS011;38310;52.796;6.942;2023-11-21T10:20:52;29.95;;;20.65;;
52380;SDS011;38310;52.796;6.942;2023-11-21T10:23:19;28.85;;;21.10;;
52380;SDS011;38310;52.796;6.942;2023-11-21T10:25:46;27.80;;;19.15;;
52380;SDS011;38310;52.796;6.942;2023-11-21T10:28:12;26.85;;;19.67;;
52380;SDS011;38310;52.796;6.942;2023-11-21T10:30:38;26.15;;;18.90;;
52380;SDS011;38310;52.796;6.942;2023-11-21T10:33:05;24.95;;;17.38;;
52380;SDS011;38310;52.796;6.942;2023-11-21T10:35:48;24.15;;;20.10;;
52380;SDS011;38310;52.796;6.942;2023-11-21T10:38:20;22.23;;;19.02;;
52380;SDS011;38310;52.796;6.942;2023-11-21T10:40:51;16.00;;;11.93;;
52380;SDS011;38310;52.796;6.942;2023-11-21T10:43:17;13.45;;;10.65;;
52380;SDS011;38310;52.796;6.942;2023-11-21T10:45:43;16.52;;;11.98;;
52380;SDS011;38310;52.796;6.942;2023-11-21T10:48:10;13.77;;;10.85;;
52380;SDS011;38310;52.796;6.942;2023-11-21T10:50:40;12.93;;;10.82;;
52380;SDS011;38310;52.796;6.942;2023-11-21T10:53:07;13.15;;;10.05;;
52380;SDS011;38310;52.796;6.942;2023-11-21T10:55:33;13.00;;;10.07;;
52380;SDS011;38310;52.796;6.942;2023-11-21T10:58:00;12.73;;;9.75;;
52380;SDS011;38310;52.796;6.942;2023-11-21T11:00:28;12.15;;;9.75;;
52380;SDS011;38310;52.796;6.942;2023-11-21T11:02:55;11.57;;;9.15;;
52380;SDS011;38310;52.796;6.942;2023-11-21T11:05:24;14.27;;;9.98;;
52380;SDS011;38310;52.796;6.942;2023-11-21T11:08:02;12.40;;;9.95;;
52380;SDS011;38310;52.796;6.942;2023-11-21T11:10:30;12.30;;;9.50;;
52380;SDS011;38310;52.796;6.942;2023-11-21T11:12:56;13.95;;;9.85;;
52380;SDS011;38310;52.796;6.942;2023-11-21T11:15:24;12.90;;;10.10;;
52380;SDS011;38310;52.796;6.942;2023-11-21T11:17:53;14.15;;;10.43;;
52380;SDS011;38310;52.796;6.942;2023-11-21T11:20:22;13.07;;;10.57;;
52380;SDS011;38310;52.796;6.942;2023-11-21T11:28:15;12.80;;;9.35;;
52380;SDS011;38310;52.796;6.942;2023-11-21T11:31:04;12.57;;;10.05;;
52380;SDS011;38310;52.796;6.942;2023-11-21T11:33:46;12.32;;;9.35;;
52380;SDS011;38310;52.796;6.942;2023-11-21T11:41:56;11.90;;;8.55;;
52380;SDS011;38310;52.796;6.942;2023-11-21T11:47:20;11.77;;;9.00;;
52380;SDS011;38310;52.796;6.942;2023-11-21T11:55:05;12.13;;;10.02;;
52380;SDS011;38310;52.796;6.942;2023-11-21T11:57:35;13.40;;;10.27;;
52380;SDS011;38310;52.796;6.942;2023-11-21T12:00:14;12.32;;;10.18;;
52380;SDS011;38310;52.796;6.942;2023-11-21T12:02:56;13.48;;;10.07;;
52380;SDS011;38310;52.796;6.942;2023-11-21T12:05:24;12.18;;;9.50;;
52380;SDS011;38310;52.796;6.942;2023-11-21T12:10:20;12.30;;;9.50;;
52380;SDS011;38310;52.796;6.942;2023-11-21T12:12:50;10.57;;;8.73;;
52380;SDS011;38310;52.796;6.942;2023-11-21T12:15:20;10.80;;;8.80;;
52380;SDS011;38310;52.796;6.942;2023-11-21T12:17:47;11.45;;;8.38;;
52380;SDS011;38310;52.796;6.942;2023-11-21T12:20:14;11.43;;;8.88;;
52380;SDS011;38310;52.796;6.942;2023-11-21T12:22:45;10.13;;;8.45;;
52380;SDS011;38310;52.796;6.942;2023-11-21T12:25:15;11.00;;;8.93;;
52380;SDS011;38310;52.796;6.942;2023-11-21T12:27:47;11.98;;;9.43;;
52380;SDS011;38310;52.796;6.942;2023-11-21T12:30:15;12.20;;;9.93;;
52380;SDS011;38310;52.796;6.942;2023-11-21T12:32:42;12.65;;;10.15;;
52380;SDS011;38310;52.796;6.942;2023-11-21T12:35:11;12.63;;;8.90;;
52380;SDS011;38310;52.796;6.942;2023-11-21T12:37:37;12.02;;;9.40;;
52380;SDS011;38310;52.796;6.942;2023-11-21T12:40:05;10.73;;;8.82;;
52380;SDS011;38310;52.796;6.942;2023-11-21T12:42:33;12.10;;;9.00;;
52380;SDS011;38310;52.796;6.942;2023-11-21T12:45:33;11.77;;;8.80;;
52380;SDS011;38310;52.796;6.942;2023-11-21T12:50:26;13.65;;;10.02;;
52380;SDS011;38310;52.796;6.942;2023-11-21T12:53:16;11.15;;;9.68;;
52380;SDS011;38310;52.796;6.942;2023-11-21T12:55:43;11.55;;;8.85;;
52380;SDS011;38310;52.796;6.942;2023-11-21T12:58:15;10.88;;;8.68;;
52380;SDS011;38310;52.796;6.942;2023-11-21T13:00:45;12.15;;;8.60;;
52380;SDS011;38310;52.796;6.942;2023-11-21T13:03:12;11.40;;;8.90;;
52380;SDS011;38310;52.796;6.942;2023-11-21T13:05:44;10.98;;;8.90;;
52380;SDS011;38310;52.796;6.942;2023-11-21T13:08:13;13.27;;;8.63;;
52380;SDS011;38310;52.796;6.942;2023-11-21T13:10:44;10.60;;;8.57;;
52380;SDS011;38310;52.796;6.942;2023-11-21T13:13:12;11.63;;;8.90;;
52380;SDS011;38310;52.796;6.942;2023-11-21T13:15:48;11.45;;;9.30;;
52380;SDS011;38310;52.796;6.942;2023-11-21T13:18:15;11.48;;;9.38;;
52380;SDS011;38310;52.796;6.942;2023-11-21T13:20:41;13.75;;;9.15;;
52380;SDS011;38310;52.796;6.942;2023-11-21T13:23:09;10.43;;;8.90;;
52380;SDS011;38310;52.796;6.942;2023-11-21T13:25:39;11.02;;;8.73;;
52380;SDS011;38310;52.796;6.942;2023-11-21T13:28:08;10.75;;;8.50;;
52380;SDS011;38310;52.796;6.942;2023-11-21T13:30:37;10.65;;;8.80;;
52380;SDS011;38310;52.796;6.942;2023-11-21T13:33:05;12.23;;;9.32;;
52380;SDS011;38310;52.796;6.942;2023-11-21T13:35:33;11.50;;;8.63;;
52380;SDS011;38310;52.796;6.942;2023-11-21T13:38:06;11.15;;;8.85;;
52380;SDS011;38310;52.796;6.942;2023-11-21T13:40:34;13.27;;;9.02;;
52380;SDS011;38310;52.796;6.942;2023-11-21T13:43:14;11.85;;;8.68;;
52380;SDS011;38310;52.796;6.942;2023-11-21T13:45:41;12.80;;;9.00;;
52380;SDS011;38310;52.796;6.942;2023-11-21T13:48:09;11.75;;;9.10;;
52380;SDS011;38310;52.796;6.942;2023-11-21T13:50:41;17.00;;;9.37;;
52380;SDS011;38310;52.796;6.942;2023-11-21T13:53:24;10.27;;;8.73;;
52380;SDS011;38310;52.796;6.942;2023-11-21T13:55:53;12.05;;;8.90;;
52380;SDS011;38310;52.796;6.942;2023-11-21T13:58:21;11.20;;;9.15;;
52380;SDS011;38310;52.796;6.942;2023-11-21T14:01:02;12.20;;;9.55;;
52380;SDS011;38310;52.796;6.942;2023-11-21T14:03:31;11.05;;;8.40;;
52380;SDS011;38310;52.796;6.942;2023-11-21T14:06:09;13.27;;;9.23;;
52380;SDS011;38310;52.796;6.942;2023-11-21T14:08:40;11.57;;;9.02;;
52380;SDS011;38310;52.796;6.942;2023-11-21T14:11:07;12.20;;;9.65;;
52380;SDS011;38310;52.796;6.942;2023-11-21T14:13:33;13.30;;;9.90;;
52380;SDS011;38310;52.796;6.942;2023-11-21T14:15:59;11.55;;;9.75;;
52380;SDS011;38310;52.796;6.942;2023-11-21T14:18:27;12.75;;;9.35;;
52380;SDS011;38310;52.796;6.942;2023-11-21T14:21:01;12.32;;;9.20;;
52380;SDS011;38310;52.796;6.942;2023-11-21T14:23:27;10.07;;;8.75;;
52380;SDS011;38310;52.796;6.942;2023-11-21T14:25:54;11.32;;;9.43;;
52380;SDS011;38310;52.796;6.942;2023-11-21T14:28:21;13.40;;;9.80;;
52380;SDS011;38310;52.796;6.942;2023-11-21T14:30:48;11.45;;;9.02;;
52380;SDS011;38310;52.796;6.942;2023-11-21T14:33:13;15.90;;;9.15;;
52380;SDS011;38310;52.796;6.942;2023-11-21T14:35:42;10.80;;;8.73;;
52380;SDS011;38310;52.796;6.942;2023-11-21T14:38:08;11.32;;;9.02;;
52380;SDS011;38310;52.796;6.942;2023-11-21T14:40:35;11.85;;;9.32;;
52380;SDS011;38310;52.796;6.942;2023-11-21T14:43:02;13.57;;;9.73;;
52380;SDS011;38310;52.796;6.942;2023-11-21T14:45:34;11.93;;;8.77;;
52380;SDS011;38310;52.796;6.942;2023-11-21T14:48:00;11.30;;;9.23;;
52380;SDS011;38310;52.796;6.942;2023-11-21T14:50:51;13.25;;;9.15;;